Time;durP1;ratioP1;P1;durP2;ratioP2;P2;SDS_P1;SDS_P2;PMS_P1;PMS_P2;Temp;Humidity;BMP_temperature;BMP_pressure;BME280_temperature;BME280_humidity;BME280_pressure;Samples;Min_cycle;Max_cycle;Signal;HPM_P1;HPM_P2
2022/12/18 00:01:37;;;;;;;25.95;11.20;;;-2.00;87.30;;;;;;5135135;28;20043;-72
2022/12/18 00:04:07;;;;;;;28.58;12.13;;;-2.00;86.90;;;;;;5136274;28;20036;-72
2022/12/18 00:06:35;;;;;;;29.13;11.27;;;-2.00;87.00;;;;;;5134798;28;20103;-73
2022/12/18 00:09:02;;;;;;;32.65;13.23;;;-2.10;86.00;;;;;;5136050;28;20020;-72
2022/12/18 00:11:30;;;;;;;36.50;12.48;;;-2.10;85.90;;;;;;5135995;28;20023;-72
2022/12/18 00:13:58;;;;;;;29.92;11.73;;;-2.10;86.50;;;;;;5134934;28;20083;-72
2022/12/18 00:16:25;;;;;;;27.65;11.82;;;-2.20;86.40;;;;;;5135927;28;20034;-72
2022/12/18 00:18:53;;;;;;;28.08;11.02;;;-2.10;87.10;;;;;;5134938;28;20083;-72
2022/12/18 00:21:19;;;;;;;27.75;11.23;;;-2.20;85.80;;;;;;5135840;28;20049;-72
2022/12/18 00:23:46;;;;;;;34.30;12.55;;;-2.10;86.40;;;;;;5135737;28;20028;-73
2022/12/18 00:26:16;;;;;;;31.40;11.48;;;-2.10;86.30;;;;;;5135593;28;20038;-72
2022/12/18 00:28:42;;;;;;;26.25;10.65;;;-2.20;86.00;;;;;;5135662;28;20031;-72
2022/12/18 00:31:10;;;;;;;24.48;10.73;;;-2.20;85.90;;;;;;5134784;28;20087;-72
2022/12/18 00:33:36;;;;;;;26.80;11.55;;;-2.20;85.80;;;;;;5134288;28;20031;-73
2022/12/18 00:36:07;;;;;;;30.33;10.82;;;-2.20;85.40;;;;;;5135511;28;20058;-72
2022/12/18 00:38:34;;;;;;;30.92;11.20;;;-2.30;85.50;;;;;;5134409;28;20051;-72
2022/12/18 00:40:59;;;;;;;23.50;11.98;;;-2.30;85.60;;;;;;5134534;28;20058;-72
2022/12/18 00:43:26;;;;;;;29.15;12.63;;;-2.30;85.80;;;;;;5135457;28;20019;-72
2022/12/18 00:45:52;;;;;;;32.47;12.02;;;-2.30;85.90;;;;;;5135314;28;20039;-72
2022/12/18 00:48:18;;;;;;;28.50;11.00;;;-2.30;85.50;;;;;;5135237;28;20027;-72
2022/12/18 00:50:43;;;;;;;28.45;11.18;;;-2.30;85.50;;;;;;5135191;28;20054;-72
2022/12/18 00:53:09;;;;;;;26.50;11.93;;;-2.30;85.60;;;;;;5134997;28;20023;-72
2022/12/18 00:55:35;;;;;;;29.85;11.15;;;-2.30;85.10;;;;;;5135081;28;20027;-72
2022/12/18 00:58:00;;;;;;;26.00;12.43;;;-2.30;85.30;;;;;;5134134;28;20085;-72
2022/12/18 01:00:26;;;;;;;28.25;11.23;;;-2.40;85.00;;;;;;5135006;28;20088;-72
2022/12/18 01:02:51;;;;;;;24.90;10.65;;;-2.40;85.00;;;;;;5134059;28;20032;-72
2022/12/18 01:05:17;;;;;;;31.70;11.18;;;-2.40;85.00;;;;;;5134940;28;20035;-72
2022/12/18 01:07:42;;;;;;;33.22;11.30;;;-2.40;85.20;;;;;;5099664;28;20048;-73
2022/12/18 01:10:11;;;;;;;24.10;9.57;;;-2.40;85.10;;;;;;5134010;28;20027;-72
2022/12/18 01:12:36;;;;;;;21.80;8.95;;;-2.40;85.10;;;;;;5134959;28;20020;-72
2022/12/18 01:15:03;;;;;;;24.02;10.25;;;-2.50;85.10;;;;;;5133740;28;20038;-72
2022/12/18 01:17:29;;;;;;;25.55;10.57;;;-2.40;85.20;;;;;;5134749;27;20034;-72
2022/12/18 01:19:56;;;;;;;23.15;10.00;;;-2.40;85.10;;;;;;5133593;28;20031;-72
2022/12/18 01:22:21;;;;;;;22.27;9.77;;;-2.40;85.10;;;;;;5134650;28;20040;-72
2022/12/18 01:24:47;;;;;;;21.08;10.05;;;-2.40;84.80;;;;;;5134585;28;20035;-72
2022/12/18 01:27:13;;;;;;;25.83;11.10;;;-2.50;84.20;;;;;;5134613;28;20061;-72
2022/12/18 01:29:39;;;;;;;19.70;9.20;;;-2.50;83.90;;;;;;5134517;28;20030;-72
2022/12/18 01:32:04;;;;;;;25.50;10.88;;;-2.60;84.00;;;;;;5134468;28;20077;-72
2022/12/18 01:34:30;;;;;;;25.80;9.55;;;-2.50;84.30;;;;;;5134424;28;20035;-72
2022/12/18 01:36:55;;;;;;;22.02;10.57;;;-2.50;83.80;;;;;;5133078;28;20495;-72
2022/12/18 01:39:21;;;;;;;26.45;9.88;;;-2.60;83.60;;;;;;5133492;28;20028;-72
2022/12/18 01:42:02;;;;;;;25.83;11.15;;;-2.60;83.90;;;;;;5134321;28;20062;-72
2022/12/18 01:44:55;;;;;;;24.80;11.23;;;-2.60;84.00;;;;;;5134385;28;20028;-72
2022/12/18 01:47:40;;;;;;;20.95;8.15;;;-2.70;83.80;;;;;;5134361;28;20027;-72
2022/12/18 01:50:08;;;;;;;19.70;8.32;;;-2.70;84.20;;;;;;5134359;28;20027;-72
2022/12/18 01:52:35;;;;;;;23.23;9.48;;;-2.70;84.20;;;;;;5134173;28;20072;-72
2022/12/18 01:55:03;;;;;;;21.23;8.50;;;-2.70;84.30;;;;;;5133153;28;20023;-72
2022/12/18 01:57:29;;;;;;;20.40;9.68;;;-2.70;84.20;;;;;;5134149;28;20032;-72
2022/12/18 02:00:00;;;;;;;21.67;9.50;;;-2.70;84.30;;;;;;5133235;28;20035;-73
2022/12/18 02:02:30;;;;;;;28.30;10.63;;;-2.80;84.40;;;;;;5134115;28;20023;-72
2022/12/18 02:04:56;;;;;;;23.67;8.70;;;-2.70;84.40;;;;;;5134245;28;20686;-73
2022/12/18 02:07:27;;;;;;;20.02;9.07;;;-2.70;84.60;;;;;;5098953;28;20075;-72
2022/12/18 02:10:08;;;;;;;16.05;8.05;;;-2.70;84.30;;;;;;5134089;28;20031;-72
2022/12/18 02:12:56;;;;;;;24.92;9.13;;;-2.70;84.30;;;;;;5134160;28;20055;-72
2022/12/18 02:15:33;;;;;;;21.80;9.52;;;-2.70;83.70;;;;;;5134006;28;20083;-72
2022/12/18 02:18:10;;;;;;;21.23;8.43;;;-2.80;83.20;;;;;;5133099;28;20047;-72
2022/12/18 02:20:43;;;;;;;16.65;7.15;;;-2.80;83.80;;;;;;5133924;28;20035;-72
2022/12/18 02:23:53;;;;;;;24.23;9.63;;;-2.80;83.70;;;;;;5133895;28;20075;-72
2022/12/18 02:26:53;;;;;;;24.73;7.35;;;-2.80;83.70;;;;;;5115785;28;20040;-72
2022/12/18 02:29:34;;;;;;;22.67;9.15;;;-2.80;83.50;;;;;;5133881;28;20083;-72
2022/12/18 02:32:01;;;;;;;16.73;7.05;;;-2.80;83.30;;;;;;5133852;28;20031;-72
2022/12/18 02:34:31;;;;;;;18.60;7.18;;;-2.80;83.20;;;;;;5133763;28;20024;-72
2022/12/18 02:36:58;;;;;;;21.88;9.20;;;-2.80;83.50;;;;;;5133823;28;20083;-73
2022/12/18 02:39:26;;;;;;;18.90;8.38;;;-2.80;82.70;;;;;;5132754;28;20024;-72
2022/12/18 02:41:52;;;;;;;20.63;7.95;;;-2.80;83.10;;;;;;5133702;28;20059;-72
2022/12/18 02:44:18;;;;;;;22.08;8.45;;;-2.80;82.90;;;;;;5132745;28;20043;-72
2022/12/18 02:46:48;;;;;;;16.70;7.93;;;-2.90;82.40;;;;;;5133615;28;20031;-73
2022/12/18 02:49:32;;;;;;;17.70;8.00;;;-3.00;82.40;;;;;;5134912;28;20030;-73
2022/12/18 02:52:11;;;;;;;15.75;7.00;;;-2.90;83.00;;;;;;5137753;28;20020;-74
2022/12/18 02:54:46;;;;;;;14.73;7.57;;;-2.90;82.90;;;;;;5137734;28;20023;-72
2022/12/18 02:57:34;;;;;;;19.92;8.05;;;-2.90;83.00;;;;;;5136547;28;20028;-72
2022/12/18 03:00:03;;;;;;;17.33;8.13;;;-2.90;82.90;;;;;;5137668;28;20073;-72
2022/12/18 03:03:02;;;;;;;18.02;8.13;;;-2.90;82.80;;;;;;5137361;28;20042;-72
2022/12/18 03:05:52;;;;;;;14.50;6.88;;;-2.90;82.70;;;;;;5137432;28;20019;-72
2022/12/18 03:08:27;;;;;;;19.20;8.50;;;-3.00;82.50;;;;;;5136423;28;20504;-73
2022/12/18 03:11:05;;;;;;;17.50;6.38;;;-3.00;82.70;;;;;;5137385;28;20020;-73
2022/12/18 03:13:46;;;;;;;17.58;7.80;;;-3.00;82.60;;;;;;5137262;28;20024;-73
2022/12/18 03:16:17;;;;;;;16.17;6.90;;;-3.00;82.60;;;;;;5137221;28;20047;-72
2022/12/18 03:18:49;;;;;;;17.17;7.20;;;-3.10;82.50;;;;;;5137169;28;20116;-72
2022/12/18 03:21:19;;;;;;;16.33;7.28;;;-3.10;82.50;;;;;;5136131;28;20030;-72
2022/12/18 03:23:48;;;;;;;17.08;8.05;;;-3.10;82.50;;;;;;5137024;28;20024;-73
2022/12/18 03:26:19;;;;;;;14.95;7.45;;;-3.10;82.60;;;;;;5136878;28;20038;-73
2022/12/18 03:28:54;;;;;;;15.40;6.82;;;-3.10;82.20;;;;;;5136951;28;20102;-72
2022/12/18 03:31:22;;;;;;;17.52;8.30;;;-3.00;82.50;;;;;;5136885;28;20016;-72
2022/12/18 03:33:59;;;;;;;21.42;7.50;;;-3.10;82.30;;;;;;5135852;28;20044;-72
2022/12/18 03:36:25;;;;;;;14.32;7.18;;;-3.10;82.30;;;;;;5136795;28;20020;-73
2022/12/18 03:38:51;;;;;;;15.70;6.18;;;-3.10;82.40;;;;;;5136733;27;20024;-72
2022/12/18 03:41:33;;;;;;;24.63;7.03;;;-3.10;82.50;;;;;;5136833;28;20035;-72
2022/12/18 03:44:28;;;;;;;13.38;6.70;;;-3.10;82.90;;;;;;5136688;28;20073;-73
2022/12/18 03:47:25;;;;;;;12.60;4.88;;;-3.10;82.90;;;;;;5136484;28;20094;-73
2022/12/18 03:50:32;;;;;;;13.27;5.85;;;-3.10;83.10;;;;;;5136537;28;20023;-73
2022/12/18 03:53:17;;;;;;;18.63;7.07;;;-3.20;82.70;;;;;;5053727;28;20029;-73
2022/12/18 03:55:43;;;;;;;21.25;6.60;;;-3.20;82.80;;;;;;5129870;28;20027;-73
2022/12/18 03:58:13;;;;;;;15.02;6.28;;;-3.30;82.80;;;;;;5136326;28;20028;-73
2022/12/18 04:00:39;;;;;;;12.50;5.03;;;-3.30;83.80;;;;;;5135948;28;20055;-73
2022/12/18 04:03:08;;;;;;;11.27;5.93;;;-3.30;83.20;;;;;;5136250;28;20032;-73
2022/12/18 04:05:35;;;;;;;15.60;6.43;;;-3.40;83.40;;;;;;5136199;27;20031;-72
2022/12/18 04:08:01;;;;;;;14.77;6.28;;;-3.40;83.70;;;;;;5134951;28;20044;-73
2022/12/18 04:10:27;;;;;;;15.27;7.38;;;-3.40;83.90;;;;;;5135141;28;20039;-72
2022/12/18 04:12:56;;;;;;;15.45;7.20;;;-3.40;83.90;;;;;;5136092;28;20024;-72
2022/12/18 04:15:23;;;;;;;14.27;6.25;;;-3.50;83.90;;;;;;5134965;28;20038;-73
2022/12/18 04:17:49;;;;;;;14.85;5.30;;;-3.40;83.50;;;;;;5135032;28;20028;-73
2022/12/18 04:20:16;;;;;;;9.85;5.72;;;-3.40;84.10;;;;;;5134931;28;20050;-73
2022/12/18 04:22:41;;;;;;;15.75;7.20;;;-3.40;84.00;;;;;;5135863;28;20032;-73
2022/12/18 04:25:07;;;;;;;10.27;4.63;;;-3.30;83.90;;;;;;5134877;28;20042;-73
2022/12/18 04:27:33;;;;;;;17.38;6.43;;;-3.30;83.90;;;;;;5135787;28;20028;-74
2022/12/18 04:29:59;;;;;;;15.05;6.63;;;-3.30;83.90;;;;;;5134852;28;20054;-73
2022/12/18 04:32:25;;;;;;;13.30;5.68;;;-3.30;84.00;;;;;;5135613;28;20028;-73
2022/12/18 04:34:50;;;;;;;15.55;6.03;;;-3.30;84.10;;;;;;5135596;28;20087;-73
2022/12/18 04:37:16;;;;;;;8.90;5.10;;;-3.30;84.00;;;;;;5135600;28;20028;-73
2022/12/18 04:39:41;;;;;;;10.20;4.60;;;-3.30;83.90;;;;;;5134534;28;20043;-73
2022/12/18 04:42:07;;;;;;;15.07;5.63;;;-3.30;83.90;;;;;;5134445;28;20058;-73
2022/12/18 04:44:33;;;;;;;14.18;6.35;;;-3.30;83.70;;;;;;5134486;28;20031;-73
2022/12/18 04:46:58;;;;;;;17.27;6.10;;;-3.30;83.90;;;;;;5135429;28;20057;-73
2022/12/18 04:49:24;;;;;;;12.02;5.30;;;-3.30;83.90;;;;;;5135274;28;20080;-73
2022/12/18 04:51:49;;;;;;;14.98;5.22;;;-3.30;83.70;;;;;;5135278;28;20024;-73
2022/12/18 04:54:15;;;;;;;15.68;6.70;;;-3.30;83.70;;;;;;5134282;28;20026;-73
2022/12/18 04:56:41;;;;;;;10.02;5.38;;;-3.20;83.50;;;;;;5134235;28;20091;-73
2022/12/18 04:59:06;;;;;;;12.82;6.57;;;-3.20;83.50;;;;;;5134185;28;20058;-73
2022/12/18 05:01:33;;;;;;;9.90;5.03;;;-3.20;83.50;;;;;;5133976;28;20031;-73
2022/12/18 05:03:59;;;;;;;10.98;6.35;;;-3.10;83.40;;;;;;5135025;28;20039;-73
2022/12/18 05:06:24;;;;;;;12.82;5.55;;;-3.20;83.00;;;;;;5134688;28;20055;-73
2022/12/18 05:08:50;;;;;;;14.75;6.32;;;-3.20;83.20;;;;;;5134904;28;20027;-73
2022/12/18 05:11:16;;;;;;;12.88;5.63;;;-3.20;83.20;;;;;;5133646;27;20032;-73
2022/12/18 05:13:42;;;;;;;13.68;6.47;;;-3.20;83.20;;;;;;5134586;28;20031;-73
2022/12/18 05:16:08;;;;;;;12.65;5.63;;;-3.10;83.30;;;;;;5134775;28;20056;-73
2022/12/18 05:18:34;;;;;;;14.50;6.05;;;-3.20;83.10;;;;;;5134739;28;20051;-73
2022/12/18 05:21:00;;;;;;;11.98;5.88;;;-3.20;82.90;;;;;;5133836;28;20023;-73
2022/12/18 05:23:26;;;;;;;12.85;5.57;;;-3.10;82.90;;;;;;5133860;28;20053;-73
2022/12/18 05:25:52;;;;;;;17.63;7.10;;;-3.20;82.70;;;;;;5134617;28;20096;-73
2022/12/18 05:28:18;;;;;;;11.32;6.05;;;-3.20;82.60;;;;;;5134488;28;20023;-73
2022/12/18 05:30:52;;;;;;;11.20;5.13;;;-3.20;82.50;;;;;;5133609;28;20108;-73
2022/12/18 05:33:19;;;;;;;16.35;5.78;;;-3.20;83.60;;;;;;5133628;28;20047;-73
2022/12/18 05:35:53;;;;;;;11.30;5.63;;;-3.20;82.70;;;;;;5134422;28;20019;-72
2022/12/18 05:38:20;;;;;;;10.23;5.18;;;-3.20;81.90;;;;;;5134493;28;20085;-73
2022/12/18 05:40:48;;;;;;;13.98;6.13;;;-3.20;82.20;;;;;;5133495;28;20039;-73
2022/12/18 05:43:14;;;;;;;11.35;4.80;;;-3.20;82.20;;;;;;5134323;28;20052;-73
2022/12/18 05:45:40;;;;;;;14.43;5.47;;;-3.30;82.10;;;;;;5134307;28;20079;-73
2022/12/18 05:48:06;;;;;;;12.60;5.38;;;-3.30;81.80;;;;;;5133457;28;20039;-73
2022/12/18 05:50:35;;;;;;;10.35;4.43;;;-3.30;82.00;;;;;;5134229;28;20026;-73
2022/12/18 05:53:02;;;;;;;12.52;5.30;;;-3.30;82.20;;;;;;5134246;28;20075;-73
2022/12/18 05:55:27;;;;;;;12.82;5.53;;;-3.30;82.20;;;;;;5133145;28;20055;-73
2022/12/18 05:57:53;;;;;;;13.50;5.55;;;-3.30;81.90;;;;;;5134122;28;20043;-72
2022/12/18 06:00:18;;;;;;;10.02;5.28;;;-3.30;82.20;;;;;;5134068;28;20032;-73
2022/12/18 06:02:47;;;;;;;12.98;5.05;;;-3.30;82.10;;;;;;5134036;28;20070;-72
2022/12/18 06:05:13;;;;;;;9.68;5.30;;;-3.30;81.80;;;;;;5134072;28;20035;-73
2022/12/18 06:07:38;;;;;;;13.05;6.07;;;-3.30;81.90;;;;;;5115767;28;20077;-73
2022/12/18 06:10:04;;;;;;;16.17;6.15;;;-3.30;81.90;;;;;;5132943;28;20030;-73
2022/12/18 06:12:30;;;;;;;11.00;5.18;;;-3.30;81.80;;;;;;5133999;28;20028;-73
2022/12/18 06:14:55;;;;;;;10.43;5.07;;;-3.30;82.20;;;;;;5134129;28;20024;-73
2022/12/18 06:17:21;;;;;;;11.73;6.00;;;-3.30;82.50;;;;;;5132974;28;20065;-73
2022/12/18 06:19:47;;;;;;;15.90;6.38;;;-3.30;82.80;;;;;;5132838;28;20051;-72
2022/12/18 06:22:12;;;;;;;11.70;4.65;;;-3.30;82.60;;;;;;5133994;28;20039;-73
2022/12/18 06:24:38;;;;;;;14.68;4.78;;;-3.20;82.70;;;;;;5119608;28;20035;-72
2022/12/18 06:27:03;;;;;;;15.25;6.18;;;-3.20;82.70;;;;;;5137096;28;20028;-73
2022/12/18 06:29:29;;;;;;;12.65;5.72;;;-3.20;83.80;;;;;;5137004;28;20092;-73
2022/12/18 06:31:54;;;;;;;12.40;5.30;;;-3.20;82.90;;;;;;5119919;28;20038;-73
2022/12/18 06:34:20;;;;;;;16.40;6.20;;;-3.20;82.80;;;;;;5119907;28;20043;-72
2022/12/18 06:36:46;;;;;;;13.05;6.00;;;-3.20;83.00;;;;;;5136889;28;20035;-73
2022/12/18 06:39:11;;;;;;;16.50;6.82;;;-3.10;83.20;;;;;;5136891;28;20100;-73
2022/12/18 06:41:37;;;;;;;14.40;5.78;;;-3.20;83.50;;;;;;5136885;28;20032;-73
2022/12/18 06:44:02;;;;;;;16.02;6.07;;;-3.20;83.50;;;;;;5137752;28;20036;-73
2022/12/18 06:46:28;;;;;;;12.30;5.57;;;-3.10;83.60;;;;;;5137693;27;20032;-73
2022/12/18 06:48:54;;;;;;;11.57;5.85;;;-3.10;83.30;;;;;;5136631;28;20031;-73
2022/12/18 06:51:22;;;;;;;10.35;5.10;;;-3.20;83.30;;;;;;5119634;28;20034;-73
2022/12/18 06:53:47;;;;;;;16.98;5.95;;;-3.10;83.50;;;;;;5136642;28;20015;-73
2022/12/18 06:56:13;;;;;;;13.63;5.85;;;-3.10;83.80;;;;;;5136593;28;20034;-73
2022/12/18 06:58:39;;;;;;;16.17;7.05;;;-3.10;84.00;;;;;;5136578;28;20110;-73
2022/12/18 07:01:08;;;;;;;11.32;5.45;;;-3.10;84.10;;;;;;5136450;28;20032;-73
2022/12/18 07:03:34;;;;;;;10.85;5.00;;;-3.10;84.20;;;;;;5136451;28;20397;-73
2022/12/18 07:05:59;;;;;;;11.10;4.70;;;-3.00;84.30;;;;;;5137205;28;20020;-73
2022/12/18 07:08:25;;;;;;;16.65;6.00;;;-3.00;85.00;;;;;;5119226;28;20053;-73
2022/12/18 07:10:51;;;;;;;11.20;5.13;;;-3.00;84.10;;;;;;5137277;28;20027;-73
2022/12/18 07:13:17;;;;;;;11.60;4.60;;;-3.00;84.70;;;;;;5136279;28;20031;-73
2022/12/18 07:15:43;;;;;;;13.35;5.32;;;-3.20;84.10;;;;;;5137168;28;20036;-73
2022/12/18 07:18:09;;;;;;;11.80;3.47;;;-3.20;84.10;;;;;;5137149;28;20028;-73
2022/12/18 07:20:35;;;;;;;7.82;4.00;;;-3.20;84.20;;;;;;5136181;28;20031;-73
2022/12/18 07:23:05;;;;;;;14.10;5.28;;;-3.20;84.30;;;;;;5136018;28;20482;-73
2022/12/18 07:25:34;;;;;;;10.85;5.10;;;-3.10;84.50;;;;;;5137035;28;20031;-73
2022/12/18 07:28:00;;;;;;;10.88;4.80;;;-3.10;84.50;;;;;;5136861;28;20040;-73
2022/12/18 07:30:26;;;;;;;9.70;4.30;;;-3.10;84.70;;;;;;5136897;28;20027;-73
2022/12/18 07:32:51;;;;;;;8.23;4.18;;;-3.10;85.10;;;;;;5136840;28;20091;-73
2022/12/18 07:35:17;;;;;;;12.00;5.72;;;-3.10;85.00;;;;;;5135101;28;20035;-73
2022/12/18 07:37:42;;;;;;;7.55;3.30;;;-3.00;85.20;;;;;;5118785;28;20032;-73
2022/12/18 07:40:09;;;;;;;9.05;4.30;;;-3.10;85.30;;;;;;5136686;28;20031;-72
2022/12/18 07:42:35;;;;;;;8.32;4.32;;;-3.00;85.50;;;;;;5136836;28;20028;-72
2022/12/18 07:45:02;;;;;;;5.32;2.55;;;-3.00;85.40;;;;;;5136602;28;20083;-72
2022/12/18 07:47:28;;;;;;;12.75;5.25;;;-3.00;85.40;;;;;;5136480;28;20042;-73
2022/12/18 07:49:54;;;;;;;10.13;4.75;;;-3.00;86.40;;;;;;5136481;28;20027;-72
2022/12/18 07:52:20;;;;;;;8.85;4.35;;;-2.90;85.70;;;;;;5135418;28;20024;-73
2022/12/18 07:54:49;;;;;;;9.98;4.57;;;-2.90;85.60;;;;;;5136452;28;20030;-73
2022/12/18 07:57:16;;;;;;;7.70;3.72;;;-2.90;85.90;;;;;;5135449;28;20107;-72
2022/12/18 07:59:42;;;;;;;5.70;3.22;;;-2.80;86.00;;;;;;5136347;28;20028;-73
2022/12/18 08:02:08;;;;;;;7.68;4.03;;;-2.80;86.10;;;;;;5135279;28;20038;-73
2022/12/18 08:04:35;;;;;;;7.10;3.42;;;-2.80;86.20;;;;;;5136250;28;20034;-73
2022/12/18 08:07:00;;;;;;;14.55;6.00;;;-2.80;86.30;;;;;;5135939;28;20063;-72
2022/12/18 08:09:26;;;;;;;13.68;4.72;;;-2.80;86.60;;;;;;5136043;28;20024;-73
2022/12/18 08:11:51;;;;;;;7.35;4.57;;;-2.70;86.60;;;;;;5136097;28;20234;-73
2022/12/18 08:14:17;;;;;;;7.75;3.15;;;-2.70;86.60;;;;;;5136062;28;20026;-73
2022/12/18 08:16:43;;;;;;;10.95;4.55;;;-2.60;86.50;;;;;;5118187;28;20435;-73
2022/12/18 08:19:09;;;;;;;8.48;3.42;;;-2.60;86.70;;;;;;5135929;28;20024;-73
2022/12/18 08:21:35;;;;;;;10.60;5.55;;;-2.60;86.80;;;;;;5117999;28;20073;-73
2022/12/18 08:24:01;;;;;;;4.85;2.95;;;-2.50;86.90;;;;;;5135847;28;20031;-72
2022/12/18 08:26:29;;;;;;;15.27;5.85;;;-2.50;86.80;;;;;;5135784;28;20024;-72
2022/12/18 08:28:56;;;;;;;6.55;2.30;;;-2.40;86.70;;;;;;5135759;28;20024;-72
2022/12/18 08:31:22;;;;;;;8.80;3.63;;;-2.30;86.40;;;;;;5135877;28;20020;-73
2022/12/18 08:33:50;;;;;;;15.20;4.25;;;-2.30;86.40;;;;;;5134667;28;20024;-73
2022/12/18 08:36:15;;;;;;;5.53;2.80;;;-2.30;86.20;;;;;;5135599;28;20041;-73
2022/12/18 08:38:41;;;;;;;8.93;4.40;;;-2.20;86.30;;;;;;5134476;28;20027;-73
2022/12/18 08:41:09;;;;;;;10.55;5.45;;;-2.10;86.20;;;;;;5117497;28;20023;-73
2022/12/18 08:46:21;;;;;;;11.50;5.68;;;-1.90;85.60;;;;;;5119551;28;20031;-73
2022/12/18 08:48:46;;;;;;;7.20;2.95;;;-1.80;85.20;;;;;;5135271;28;20032;-73
2022/12/18 08:51:12;;;;;;;7.60;3.78;;;-1.70;84.60;;;;;;5134282;28;20028;-73
2022/12/18 08:53:38;;;;;;;5.43;3.50;;;-1.60;84.10;;;;;;5135293;28;20024;-74
2022/12/18 08:56:05;;;;;;;13.98;5.97;;;-1.50;83.80;;;;;;5135167;28;20027;-73
2022/12/18 08:58:30;;;;;;;10.23;4.15;;;-1.40;83.80;;;;;;5135139;28;20027;-73
2022/12/18 09:01:04;;;;;;;13.65;5.70;;;-1.30;83.60;;;;;;5135169;28;20123;-74
2022/12/18 09:03:30;;;;;;;20.88;6.03;;;-1.30;83.40;;;;;;5135051;28;20031;-73
2022/12/18 09:05:56;;;;;;;9.43;4.20;;;-1.30;82.90;;;;;;5135020;28;20031;-72
2022/12/18 09:08:22;;;;;;;14.00;5.30;;;-1.10;82.60;;;;;;5134537;28;20063;-73
2022/12/18 09:10:50;;;;;;;10.10;4.07;;;-1.10;82.50;;;;;;5135025;28;20042;-74
2022/12/18 09:13:16;;;;;;;12.18;5.22;;;-1.10;82.50;;;;;;5134905;28;20024;-74
2022/12/18 09:15:47;;;;;;;9.18;5.15;;;-1.00;82.50;;;;;;5134837;28;20024;-74
2022/12/18 09:18:14;;;;;;;9.00;4.35;;;-0.90;82.00;;;;;;5135009;27;20095;-74
2022/12/18 09:20:40;;;;;;;12.82;5.40;;;-0.80;81.80;;;;;;5134736;28;20057;-74
2022/12/18 09:23:06;;;;;;;13.00;6.07;;;-0.80;82.00;;;;;;5134871;28;20450;-74
2022/12/18 09:25:35;;;;;;;10.10;3.83;;;-0.70;81.00;;;;;;5116590;28;20032;-74
2022/12/18 09:28:14;;;;;;;14.55;5.63;;;-0.70;81.20;;;;;;5134482;28;20038;-74
2022/12/18 09:30:49;;;;;;;15.43;7.05;;;-0.70;80.60;;;;;;5134651;28;20047;-74
2022/12/18 09:33:15;;;;;;;11.55;6.60;;;-0.70;81.00;;;;;;5134589;28;20020;-74
2022/12/18 09:35:43;;;;;;;7.82;2.55;;;-0.70;80.80;;;;;;5134469;28;20097;-74
2022/12/18 09:38:12;;;;;;;12.40;5.70;;;-0.60;80.80;;;;;;5133500;28;20028;-74
2022/12/18 09:40:48;;;;;;;8.27;4.28;;;-0.60;81.00;;;;;;5134395;28;20092;-74
2022/12/18 09:43:19;;;;;;;14.90;6.55;;;-0.60;80.80;;;;;;5134426;28;20023;-74
2022/12/18 09:45:51;;;;;;;23.48;6.78;;;-0.60;81.00;;;;;;5134346;28;20024;-74
2022/12/18 09:48:27;;;;;;;15.75;6.88;;;-0.60;81.00;;;;;;5134287;28;20027;-74
2022/12/18 09:51:00;;;;;;;8.20;5.28;;;-0.60;82.30;;;;;;5134296;28;20024;-74
2022/12/18 09:53:30;;;;;;;9.30;4.13;;;-0.60;81.10;;;;;;5133280;28;20015;-74
2022/12/18 09:55:57;;;;;;;8.20;3.88;;;-0.60;81.50;;;;;;5134314;28;20020;-74
2022/12/18 09:59:01;;;;;;;10.60;4.00;;;-0.60;81.00;;;;;;5132939;28;20087;-74
2022/12/18 10:01:29;;;;;;;16.17;5.63;;;-0.60;80.70;;;;;;5116411;27;20032;-74
2022/12/18 10:03:55;;;;;;;11.15;4.60;;;-0.60;81.00;;;;;;5134101;28;20026;-74
2022/12/18 10:06:45;;;;;;;14.20;5.97;;;-0.60;81.60;;;;;;5133953;28;20474;-74
2022/12/18 10:09:27;;;;;;;11.98;5.57;;;-0.60;80.70;;;;;;5133955;28;20048;-74
2022/12/18 10:11:58;;;;;;;18.92;6.57;;;-0.50;81.00;;;;;;5134052;28;20023;-74
2022/12/18 10:15:05;;;;;;;12.18;5.68;;;-0.50;80.90;;;;;;5132898;28;20023;-74
2022/12/18 10:17:51;;;;;;;11.07;3.88;;;-0.40;81.20;;;;;;5134115;28;20027;-74
2022/12/18 10:20:40;;;;;;;9.95;4.22;;;-0.40;81.10;;;;;;5133938;28;20405;-74
2022/12/18 10:23:21;;;;;;;13.70;5.45;;;-0.40;81.60;;;;;;5133841;28;20053;-74
2022/12/18 10:26:16;;;;;;;11.90;6.05;;;-0.30;81.60;;;;;;5133914;28;20114;-74
2022/12/18 10:28:43;;;;;;;11.55;4.32;;;-0.20;80.40;;;;;;5116628;28;20039;-74
2022/12/18 10:31:18;;;;;;;17.13;6.68;;;-0.20;81.50;;;;;;5133785;28;20019;-74
2022/12/18 10:33:44;;;;;;;6.38;3.83;;;-0.10;81.00;;;;;;5133831;28;20099;-74
2022/12/18 10:36:10;;;;;;;11.10;3.95;;;-0.10;79.90;;;;;;5133730;28;20024;-74
2022/12/18 10:38:36;;;;;;;5.50;2.75;;;-0.10;80.00;;;;;;5133752;28;20058;-74
2022/12/18 10:41:05;;;;;;;9.15;4.50;;;-0.20;80.20;;;;;;5132789;28;20035;-74
2022/12/18 10:43:35;;;;;;;12.00;5.05;;;-0.20;80.40;;;;;;5133698;28;20075;-74
2022/12/18 10:46:07;;;;;;;13.43;4.78;;;-0.20;80.90;;;;;;5132768;28;20020;-74
2022/12/18 10:48:40;;;;;;;14.07;5.80;;;-0.20;80.60;;;;;;5133553;28;20087;-74
2022/12/18 10:51:07;;;;;;;14.98;6.20;;;-0.10;80.60;;;;;;5133679;28;20047;-74
2022/12/18 10:53:36;;;;;;;6.45;3.50;;;-0.20;80.00;;;;;;5133571;28;20028;-74
2022/12/18 10:56:04;;;;;;;16.23;6.43;;;-0.10;80.60;;;;;;5133605;28;20537;-74
2022/12/18 10:58:38;;;;;;;8.60;4.57;;;-0.10;81.10;;;;;;5132507;28;20020;-74
2022/12/18 11:01:06;;;;;;;13.70;6.03;;;-0.10;80.90;;;;;;5133560;28;20024;-74
2022/12/18 11:03:37;;;;;;;11.93;5.68;;;-0.10;80.70;;;;;;5133523;28;20044;-74
2022/12/18 11:06:07;;;;;;;8.50;3.88;;;-0.10;80.00;;;;;;5133501;28;20028;-74
2022/12/18 11:08:32;;;;;;;5.65;2.75;;;0.00;80.70;;;;;;5133157;28;20039;-74
2022/12/18 11:10:58;;;;;;;9.07;4.38;;;0.00;80.20;;;;;;5135809;28;20035;-74
2022/12/18 11:13:27;;;;;;;8.20;4.55;;;0.00;80.30;;;;;;5137262;28;20038;-74
2022/12/18 11:15:53;;;;;;;2.85;2.08;;;0.10;80.00;;;;;;5137231;28;20028;-74
2022/12/18 11:18:28;;;;;;;8.15;4.25;;;0.10;80.10;;;;;;5137089;28;20035;-74
2022/12/18 11:21:07;;;;;;;9.02;3.58;;;0.10;79.90;;;;;;5137225;28;20023;-74
2022/12/18 11:23:34;;;;;;;14.63;5.70;;;0.10;80.20;;;;;;5137105;28;20087;-74
2022/12/18 11:26:03;;;;;;;16.65;5.45;;;0.10;80.10;;;;;;5137042;28;20044;-74
2022/12/18 11:28:36;;;;;;;11.05;4.95;;;0.10;80.00;;;;;;5136802;28;20084;-74
2022/12/18 11:31:13;;;;;;;15.50;6.63;;;0.10;80.30;;;;;;5137097;28;20087;-74
2022/12/18 11:33:44;;;;;;;14.95;4.50;;;0.20;79.70;;;;;;5135872;28;20031;-74
2022/12/18 11:36:11;;;;;;;15.70;5.93;;;0.20;79.60;;;;;;5135912;28;20564;-74
2022/12/18 11:38:41;;;;;;;7.22;2.97;;;0.20;78.90;;;;;;5136749;28;20031;-74
2022/12/18 11:41:22;;;;;;;13.25;6.05;;;0.30;79.10;;;;;;5136929;28;20050;-74
2022/12/18 11:43:58;;;;;;;12.52;5.32;;;0.30;79.80;;;;;;5136829;28;20027;-74
2022/12/18 11:46:33;;;;;;;12.48;4.90;;;0.30;79.60;;;;;;5136712;28;20248;-74
2022/12/18 11:49:18;;;;;;;12.23;4.35;;;0.30;79.90;;;;;;5135550;28;20050;-74
2022/12/18 11:51:50;;;;;;;13.70;5.65;;;0.30;80.00;;;;;;5135479;28;20027;-74
2022/12/18 11:54:16;;;;;;;12.05;4.68;;;0.40;79.90;;;;;;5136520;28;20050;-74
2022/12/18 11:57:11;;;;;;;10.38;3.78;;;0.40;79.60;;;;;;5135471;28;20028;-74
2022/12/18 12:00:03;;;;;;;5.30;2.70;;;0.40;78.80;;;;;;5136289;28;20102;-74
2022/12/18 12:03:01;;;;;;;11.55;5.78;;;0.40;78.80;;;;;;5135735;28;20036;-74
2022/12/18 12:06:07;;;;;;;7.28;4.20;;;0.50;78.90;;;;;;5136238;28;20042;-74
2022/12/18 12:08:43;;;;;;;12.77;5.97;;;0.40;78.90;;;;;;5069623;28;20066;-74
2022/12/18 12:11:27;;;;;;;11.85;5.03;;;0.50;79.30;;;;;;5136138;28;20028;-74
2022/12/18 12:14:01;;;;;;;12.75;4.85;;;0.50;79.50;;;;;;5135080;28;20058;-74
2022/12/18 12:16:44;;;;;;;9.02;2.85;;;0.50;79.70;;;;;;5135016;28;20028;-73
2022/12/18 12:19:28;;;;;;;11.80;5.07;;;0.50;79.10;;;;;;5136115;28;20024;-74
2022/12/18 12:22:09;;;;;;;15.60;4.18;;;0.60;78.90;;;;;;5135672;28;20019;-74
2022/12/18 12:25:05;;;;;;;11.60;5.32;;;0.60;79.20;;;;;;5135922;28;20390;-73
2022/12/18 12:27:50;;;;;;;8.75;2.53;;;0.60;79.20;;;;;;5134668;28;20578;-74
2022/12/18 12:30:44;;;;;;;8.65;3.40;;;0.60;78.10;;;;;;5135907;28;20020;-74
2022/12/18 12:33:35;;;;;;;9.02;4.45;;;0.60;79.00;;;;;;5135667;28;20020;-74
2022/12/18 12:36:33;;;;;;;4.80;3.08;;;0.60;78.80;;;;;;5124566;28;20109;-74
2022/12/18 12:39:05;;;;;;;6.43;3.78;;;0.60;78.10;;;;;;5135770;28;20020;-75
2022/12/18 12:44:26;;;;;;;10.98;5.30;;;0.70;77.70;;;;;;5135555;28;20049;-74
2022/12/18 12:46:56;;;;;;;16.40;6.68;;;0.70;77.10;;;;;;5135548;28;20020;-74
2022/12/18 12:49:26;;;;;;;15.80;6.03;;;0.70;77.50;;;;;;5135326;28;20015;-74
2022/12/18 12:52:30;;;;;;;12.70;5.03;;;0.70;78.30;;;;;;5135385;28;20398;-74
2022/12/18 12:54:57;;;;;;;8.00;4.43;;;0.70;77.50;;;;;;5122885;28;20061;-74
2022/12/18 12:57:41;;;;;;;13.18;4.30;;;0.70;77.50;;;;;;5134314;28;20023;-74
2022/12/18 13:00:13;;;;;;;17.27;5.93;;;0.80;77.70;;;;;;5135271;28;20016;-74
2022/12/18 13:02:44;;;;;;;;;;;0.80;77.80;;;;;;5134445;28;20050;-74